Latest Weather Observations for Walgett

IDN60801

Issued at 6:23 pm EST Saturday 9 May 2026 (issued every 10 minutes, with the page automatically refreshed every 10 minutes)

About weather observations | Map of weather stations | Latest weather observations for NSW | Other Formats
Station Details ID: 052088 Name: WALGETT AIRPORT AWS Lat: -30.04 Lon: 148.12 Height: 133.0 m
Data from the previous 72 hours. | See also: Recent months at Walgett
Date/Time
EST
Temp
°C
App
Temp
°C
Dew
Point
°C
Rel
Hum
%
Delta-T
°C
Wind Press
QNH
hPa
Press
MSL
hPa
Rain since
9am
mm
Dir  Spd
km/h
Gust
km/h
Spd
kts
Gust
kts
09/06:00pm 17.3 14.5 3.2 39 6.5 SW 7 9 4 5 1023.6 1023.5 0.0
09/05:30pm 18.6 15.4 3.3 36 7.2 SSW 9 13 5 7 1023.2 1023.1 0.0
09/05:00pm 21.4 17.7 4.5 33 8.3 S 13 17 7 9 1022.9 1022.8 0.0
09/04:30pm 22.2 18.5 4.3 31 8.8 S 13 19 7 10 1022.7 1022.6 0.0
09/04:00pm 22.7 18.6 4.2 30 9.1 S 15 20 8 11 1022.6 1022.5 0.0
09/03:30pm 23.1 19.4 4.6 30 9.2 SSW 13 20 7 11 1022.6 1022.5 0.0
09/03:00pm 23.1 20.6 4.6 30 9.2 WSW 7 17 4 9 1022.5 1022.4 0.0
09/02:30pm 22.6 18.9 4.2 30 9.1 SSW 13 24 7 13 1022.6 1022.5 0.0
09/02:00pm 21.9 18.6 4.5 32 8.5 S 11 19 6 10 1022.8 1022.7 0.0
09/01:30pm 22.3 19.1 5.3 33 8.5 SW 11 15 6 8 1023.0 1022.9 0.0
09/01:00pm 21.2 17.2 5.1 35 7.9 S 15 28 8 15 1023.4 1023.3 0.0
09/12:30pm 21.2 17.9 6.3 38 7.6 SSW 13 20 7 11 1023.9 1023.8 0.0
09/12:00pm 20.3 17.3 5.9 39 7.2 S 11 19 6 10 1024.5 1024.4 0.0
09/11:30am 19.8 16.8 6.2 41 6.8 S 11 20 6 11 1024.9 1024.9 0.0
09/11:00am 19.2 16.4 7.0 45 6.2 S 11 17 6 9 1025.4 1025.3 0.0
09/10:30am 18.2 14.6 6.7 47 5.8 SSE 15 20 8 11 1025.7 1025.6 0.0
09/10:00am 17.2 13.4 7.5 53 4.9 SSE 17 24 9 13 1025.8 1025.7 0.0
09/09:30am 16.7 13.0 8.1 57 4.4 S 17 24 9 13 1025.6 1025.5 0.0
09/09:00am 14.3 9.9 7.6 64 3.3 S 20 24 11 13 1025.6 1025.5 0.0
09/08:30am 12.9 8.7 7.6 70 2.6 S 19 24 10 13 1025.5 1025.4 0.0
09/08:00am 10.7 7.2 7.2 79 1.7 SSW 15 20 8 11 1025.3 1025.2 0.0
09/07:30am 7.8 5.3 6.6 92 0.6 SW 9 13 5 7 1024.9 1024.9 0.0
09/07:00am 5.6 3.1 4.6 93 0.4 SW 7 9 4 5 1024.8 1024.8 0.0
09/06:30am 5.9 3.0 4.7 92 0.5 SW 9 11 5 6 1024.6 1024.5 0.0
09/06:00am 6.3 3.8 4.6 89 0.7 SW 7 9 4 5 1024.3 1024.2 0.0
09/05:30am 6.1 3.5 4.4 89 0.7 SW 7 9 4 5 1024.0 1023.9 0.0
09/05:00am 5.7 2.7 3.9 88 0.8 WSW 9 11 5 6 1023.8 1023.7 0.0
09/04:30am 6.0 4.7 4.2 88 0.8 CALM 0 0 0 0 1023.7 1023.6 0.0
09/04:00am 5.7 2.6 3.5 86 0.9 SW 9 15 5 8 1023.6 1023.5 0.0
09/03:30am 6.6 3.3 4.4 86 1.0 WSW 11 13 6 7 1023.8 1023.7 0.0
09/03:00am 6.4 2.7 4.6 88 0.8 WSW 13 15 7 8 1023.9 1023.8 0.0
09/02:30am 5.6 2.4 3.3 85 1.0 WSW 9 13 5 7 1024.0 1023.9 0.0
09/02:00am 6.0 3.2 3.0 81 1.2 WSW 7 9 4 5 1024.2 1024.1 0.0
09/01:30am 7.2 4.2 4.2 81 1.3 SW 9 11 5 6 1024.3 1024.2 0.0
09/01:00am 6.5 4.4 4.0 84 1.1 SSW 4 7 2 4 1024.4 1024.3 0.0
09/12:30am 6.6 3.5 3.4 80 1.4 SSW 9 11 5 6 1024.4 1024.3 0.0
09/12:00am 7.3 3.8 3.7 78 1.5 SSW 11 13 6 7 1024.4 1024.3 0.0
 
Date/Time
EST
Temp
°C
App
Temp
°C
Dew
Point
°C
Rel
Hum
%
Delta-T
°C
Wind Press
QNH
hPa
Press
MSL
hPa
Rain since
9am
mm
Dir  Spd
km/h
Gust
km/h
Spd
kts
Gust
kts
08/11:30pm 7.4 4.3 3.5 76 1.7 SSW 9 11 5 6 1024.5 1024.4 0.0
08/11:00pm 7.9 5.1 3.0 71 2.1 SSW 7 9 4 5 1024.5 1024.4 0.0
08/10:30pm 9.7 6.3 4.1 68 2.5 SW 11 11 6 6 1024.7 1024.7 0.0
08/10:00pm 9.8 7.3 4.0 67 2.6 SW 6 9 3 5 1024.7 1024.7 0.0
08/09:30pm 10.9 7.6 4.6 65 2.9 SSW 11 13 6 7 1024.6 1024.5 0.0
08/09:00pm 12.0 8.3 4.7 61 3.3 SW 13 17 7 9 1024.5 1024.4 0.0
08/08:30pm 11.6 8.6 3.9 59 3.5 SSW 9 11 5 6 1024.4 1024.3 0.0
08/08:00pm 13.4 9.8 4.8 56 4.0 SW 13 17 7 9 1024.3 1024.2 0.0
08/07:30pm 13.1 9.8 4.3 55 4.0 SW 11 15 6 8 1024.1 1024.0 0.0
08/07:00pm 14.1 10.1 4.7 53 4.4 SSW 15 17 8 9 1023.8 1023.7 0.0
08/06:30pm 13.5 10.1 3.8 52 4.4 SW 11 13 6 7 1023.5 1023.4 0.0
08/06:00pm 14.9 11.5 4.0 48 5.0 SW 11 15 6 8 1023.1 1023.0 0.0
08/05:30pm 16.3 12.1 4.0 44 5.8 SW 15 17 8 9 1022.8 1022.7 0.0
08/05:00pm 18.0 13.1 4.2 40 6.5 SW 19 30 10 16 1022.6 1022.5 0.0
08/04:30pm 18.8 13.8 3.8 37 7.1 SW 19 26 10 14 1022.5 1022.4 0.0
08/04:00pm 19.0 13.5 4.0 37 7.1 SW 22 32 12 17 1022.5 1022.4 0.0
08/03:30pm 19.6 14.0 3.7 35 7.6 SSW 22 32 12 17 1022.6 1022.5 0.0
08/03:00pm 19.5 13.9 3.6 35 7.5 SW 22 35 12 19 1022.6 1022.5 0.0
08/02:30pm 18.9 13.2 3.1 35 7.4 SW 22 33 12 18 1022.9 1022.8 0.0
08/02:00pm 18.8 13.5 3.0 35 7.4 SSW 20 33 11 18 1023.1 1023.0 0.0
08/01:30pm 18.5 13.2 2.8 35 7.3 SW 20 30 11 16 1023.6 1023.5 0.0
08/01:00pm 18.5 13.2 2.8 35 7.3 SW 20 41 11 22 1024.0 1023.9 0.0
08/12:30pm 17.9 12.2 2.6 36 7.0 SW 22 32 12 17 1024.2 1024.1 0.0
08/12:00pm 17.0 12.2 2.6 38 6.5 SSW 17 30 9 16 1024.7 1024.7 0.0
08/11:30am 16.7 11.0 2.7 39 6.4 SSW 22 33 12 18 1025.2 1025.1 0.0
08/11:00am 16.4 11.3 3.1 41 6.1 SW 19 28 10 15 1025.5 1025.4 0.0
08/10:30am 15.5 10.2 3.0 43 5.7 SSW 20 30 11 16 1025.8 1025.7 0.0
08/10:00am 14.5 8.3 2.4 44 5.4 SSW 24 35 13 19 1026.2 1026.1 0.0
08/09:30am 13.8 8.0 2.4 46 5.1 SSW 22 30 12 16 1026.3 1026.2 0.0
08/09:00am 12.0 6.4 1.3 48 4.5 SSW 20 30 11 16 1026.5 1026.4 0.0
08/08:30am 10.5 5.1 1.1 52 3.9 SW 19 26 10 14 1026.5 1026.4 0.0
08/08:00am 7.9 3.9 0.4 59 3.0 WSW 11 17 6 9 1026.4 1026.3 0.0
08/07:30am 5.3 1.2 -0.3 67 2.1 WSW 11 13 6 7 1026.2 1026.1 0.0
08/07:00am 3.0 -1.3 -1.4 73 1.6 W 11 13 6 7 1025.7 1025.6 0.0
08/06:30am 2.8 -1.5 -1.7 72 1.6 W 11 11 6 6 1025.5 1025.4 0.0
08/06:00am 3.2 -0.7 -1.7 70 1.7 W 9 11 5 6 1025.6 1025.5 0.0
08/05:30am 2.9 -1.4 -1.8 71 1.7 WSW 11 13 6 7 1025.5 1025.4 0.0
08/05:00am 3.4 -0.6 -2.1 67 1.9 WSW 9 11 5 6 1025.4 1025.3 0.0
08/04:30am 3.4 -0.6 -2.3 66 2.0 WSW 9 11 5 6 1025.3 1025.2 0.0
08/04:00am 3.6 -0.4 -2.3 65 2.1 WSW 9 11 5 6 1025.3 1025.2 0.0
08/03:30am 3.5 -1.0 -2.9 63 2.2 WSW 11 13 6 7 1025.2 1025.1 0.0
08/03:00am 5.9 0.7 -2.4 55 3.0 SW 15 20 8 11 1025.2 1025.1 0.0
08/02:30am 6.5 1.0 -2.4 53 3.3 SW 17 20 9 11 1025.1 1025.0 0.0
08/02:00am 6.2 1.0 -2.7 53 3.2 SW 15 20 8 11 1025.1 1025.0 0.0
08/01:30am 6.4 1.2 -2.7 52 3.3 SW 15 20 8 11 1025.3 1025.2 0.0
08/01:00am 6.1 0.9 -2.5 54 3.1 SW 15 17 8 9 1025.5 1025.4 0.0
08/12:30am 4.6 -0.3 -3.2 57 2.7 WSW 13 15 7 8 1025.6 1025.5 0.0
08/12:00am 6.1 1.2 -3.3 51 3.3 SW 13 17 7 9 1025.6 1025.5 0.0
 
Date/Time
EST
Temp
°C
App
Temp
°C
Dew
Point
°C
Rel
Hum
%
Delta-T
°C
Wind Press
QNH
hPa
Press
MSL
hPa
Rain since
9am
mm
Dir  Spd
km/h
Gust
km/h
Spd
kts
Gust
kts
07/11:30pm 6.5 2.0 -3.4 49 3.5 SW 11 13 6 7 1025.7 1025.6 0.0
07/11:00pm 7.8 2.9 -3.1 46 4.0 SSW 13 17 7 9 1025.7 1025.6 0.0
07/10:30pm 7.9 3.0 -3.3 45 4.1 SSW 13 17 7 9 1025.7 1025.6 0.0
07/10:00pm 6.5 1.9 -3.7 48 3.6 SSW 11 13 6 7 1025.9 1025.8 0.0
07/09:30pm 7.4 3.2 -3.7 45 4.0 SW 9 15 5 8 1025.8 1025.7 0.0
07/09:00pm 8.7 4.1 -3.8 41 4.5 SSW 11 15 6 8 1025.5 1025.4 0.0
07/08:30pm 9.3 4.4 -3.6 40 4.8 SSW 13 17 7 9 1025.1 1025.0 0.0
07/08:00pm 9.4 4.5 -3.5 40 4.7 SW 13 20 7 11 1024.8 1024.8 0.0
07/07:30pm 10.0 5.1 -3.6 38 5.1 SSW 13 17 7 9 1024.6 1024.5 0.0
07/07:00pm 10.5 4.8 -3.9 36 5.3 SSW 17 19 9 10 1024.1 1024.0 0.0
07/06:30pm 10.9 5.1 -4.3 34 5.6 SSW 17 20 9 11 1023.6 1023.5 0.0
07/06:00pm 12.7 6.4 -4.0 31 6.3 SSW 20 26 11 14 1023.2 1023.1 0.0
07/05:30pm 13.8 6.9 -3.0 31 6.6 SSW 24 32 13 17 1022.8 1022.7 0.0
07/05:00pm 15.2 8.0 -2.2 30 7.0 SSW 26 35 14 19 1022.4 1022.3 0.0
07/04:30pm 16.1 8.1 -2.4 28 7.6 SSW 30 41 16 22 1022.0 1021.9 0.0
07/04:00pm 16.6 8.6 -2.5 27 7.8 SSW 30 46 16 25 1021.8 1021.7 0.0
07/03:56pm 16.9 9.4 -1.7 28 7.8 SSW 28 46 15 25 1021.8 1021.7 0.0
07/03:30pm 17.5 9.5 -2.2 26 8.2 SW 30 46 16 25 1021.6 1021.5 0.0
07/03:00pm 17.6 9.5 -3.2 24 8.4 SSW 30 43 16 23 1021.5 1021.4 0.0
07/02:30pm 18.3 11.9 -1.5 26 8.4 SW 22 35 12 19 1021.5 1021.4 0.0
07/02:00pm 17.8 9.1 -3.0 24 8.5 SW 33 44 18 24 1021.7 1021.6 0.0
07/01:30pm 17.9 10.6 2.2 35 7.2 SW 30 41 16 22 1021.6 1021.5 0.0
07/01:00pm 17.2 11.1 6.4 49 5.3 SW 28 41 15 22 1021.7 1021.6 0.0
07/12:36pm 16.5 9.7 6.9 53 4.8 SW 32 52 17 28 1022.0 1021.9 0.0
07/12:30pm 15.9 8.9 6.9 55 4.5 SW 33 44 18 24 1022.1 1022.0 0.0
07/12:00pm 16.7 10.7 7.1 53 4.8 SW 28 39 15 21 1022.1 1022.0 0.0
07/11:30am 17.2 11.2 7.0 51 5.1 SSW 28 39 15 21 1022.0 1021.9 0.0
07/11:00am 17.8 12.2 7.2 50 5.3 SW 26 37 14 20 1022.1 1022.0 0.0
07/10:30am 17.4 12.1 6.6 49 5.4 SW 24 35 13 19 1022.1 1022.0 0.0
07/10:00am 16.9 12.2 6.1 49 5.3 SW 20 35 11 19 1022.0 1021.9 0.0
07/09:30am 15.9 10.9 6.3 53 4.7 SW 22 28 12 15 1022.2 1022.1 0.0
07/09:00am 14.7 10.4 6.8 59 3.9 SW 19 26 10 14 1022.0 1021.9 0.0
07/08:30am 13.1 9.6 7.1 67 2.9 WSW 15 20 8 11 1021.9 1021.8 0.0
07/08:00am 10.2 7.5 7.4 83 1.3 WSW 11 15 6 8 1021.5 1021.4 0.0
07/07:30am 7.8 5.1 7.2 96 0.3 W 11 13 6 7 1021.1 1021.0 0.0
07/07:00am 5.8 3.0 5.2 96 0.3 W 9 11 5 6 1020.6 1020.5 0.0
07/06:30am 5.9 2.7 5.0 94 0.4 WSW 11 11 6 6 1020.4 1020.3 0.0
07/06:00am 6.1 2.9 5.1 93 0.4 WSW 11 11 6 6 1020.2 1020.1 0.0
07/05:30am 6.4 3.3 5.4 93 0.4 W 11 13 6 7 1020.0 1019.9 0.0
07/05:00am 6.8 4.4 5.4 91 0.6 W 7 9 4 5 1019.6 1019.5 0.0
07/04:30am 7.2 4.0 5.3 88 0.8 WSW 11 11 6 6 1019.6 1019.5 0.0
07/04:00am 7.4 4.3 5.4 87 0.9 W 11 13 6 7 1019.6 1019.5 0.0
07/03:30am 7.8 4.9 4.9 82 1.3 WSW 9 11 5 6 1019.5 1019.4 0.0
07/03:00am 9.5 6.3 6.8 83 1.3 SW 13 19 7 10 1019.6 1019.5 0.0
07/02:30am 8.3 5.1 5.2 81 1.4 WSW 11 15 6 8 1019.8 1019.7 0.0
07/02:00am 8.4 5.6 5.0 79 1.5 SW 9 13 5 7 1019.9 1019.8 0.0
07/01:30am 8.7 5.5 4.9 77 1.7 WSW 11 15 6 8 1020.0 1019.9 0.0
07/01:00am 8.9 5.3 4.9 76 1.8 WSW 13 15 7 8 1019.7 1019.6 0.0
07/12:30am 9.3 6.4 4.5 72 2.1 WSW 9 15 5 8 1019.4 1019.3 0.0
07/12:00am 10.1 7.2 4.7 69 2.4 SW 9 11 5 6 1019.3 1019.2 0.0
 
Date/Time
EST
Temp
°C
App
Temp
°C
Dew
Point
°C
Rel
Hum
%
Delta-T
°C
Wind Press
QNH
hPa
Press
MSL
hPa
Rain since
9am
mm
Dir  Spd
km/h
Gust
km/h
Spd
kts
Gust
kts
06/11:30pm 10.6 9.0 4.3 65 2.8 SSW 2 7 1 4 1019.3 1019.2 0.0
06/11:00pm 12.0 8.8 5.0 62 3.2 SSW 11 13 6 7 1019.3 1019.2 0.0
06/10:30pm 13.6 9.7 5.5 58 3.8 SSW 15 19 8 10 1019.4 1019.3 0.0
06/10:00pm 14.5 11.0 5.3 54 4.4 SSW 13 19 7 10 1019.7 1019.6 0.0
06/09:30pm 15.5 11.2 5.4 51 4.8 SSW 17 24 9 13 1019.5 1019.4 0.0
06/09:00pm 15.4 11.2 5.6 52 4.7 SW 17 20 9 11 1019.4 1019.3 0.0
06/08:30pm 14.6 11.1 5.4 54 4.4 SW 13 17 7 9 1019.5 1019.4 0.0
06/08:00pm 13.9 10.2 4.5 53 4.4 WSW 13 15 7 8 1019.3 1019.2 0.0
06/07:30pm 13.8 10.3 3.6 50 4.6 WSW 11 13 6 7 1019.2 1019.1 0.0
06/07:00pm 15.0 11.5 3.5 46 5.3 WSW 11 13 6 7 1018.9 1018.8 0.0
06/06:30pm 15.7 12.2 3.5 44 5.6 WSW 11 15 6 8 1018.6 1018.5 0.0

Other formats

Comma delimited format used in spreadsheet applications
http://www.bom.gov.au/fwo/IDN60801/IDN60801.95715.axf

JavaScript Object Notation format (JSON) in row-major order
http://www.bom.gov.au/fwo/IDN60801/IDN60801.95715.json

Data quality

Most of these data are generated automatically and are frequently updated. Quality checks on data are not normally performed. It is possible for incorrect values to appear. Refer to information at About Latest Weather Observations and please check the disclaimer before using these data.